General Aviation Weather

Text Reports

Enter one or more of the following location identifiers separated by a space:

Zip Code, Four-Character ICAO or Three-Character IATA airport codes.

METAR - Aviation Routine Weather Report
KAEL - Albert Lea, Minnesota
Updated at 2:13 AM GMT on August 29, 2014 (9:13 PM CDT):
METAR KAEL 290213Z AUTO 10005KT 4SM BR OVC003 19/18 A2992 RMK AO2
TAF - Terminal Area Forecast
KAEL - Albert Lea, Minnesota
Updated at 2:13 AM GMT on August 29, 2014 (9:13 PM CDT):
No TAF is currently available for this location.
Decoded:
No decoded TAF is available.
PIREP - Pilot Weather Report
KAEL - Albert Lea, Minnesota
Updated at 2:13 AM GMT on August 29, 2014 (9:13 PM CDT):
No PIREP is currently available for this location.
AIRMET - Airmens Meteorological Information
KAEL - Albert Lea, Minnesota
Updated at 2:13 AM GMT on August 29, 2014 (9:13 PM CDT):
No AIRMET is currently available for this location.
SIGMET - Significant Meteorological Information
KAEL - Albert Lea, Minnesota
Updated at 2:13 AM GMT on August 29, 2014 (9:13 PM CDT):
No SIGMET is currently available for this location.
NOTAM - Notice to Airmen
KAEL - Albert Lea, Minnesota
Updated at 2:13 AM GMT on August 29, 2014 (9:13 PM CDT):
No NOTAM is currently available for this location.
Forecast Area
KAEL - Albert Lea, Minnesota
Updated at 2:13 AM GMT on August 29, 2014 (9:13 PM CDT):
No NOTAM is currently available for this location.
Aviation Weather Maps